Impacts TAF Board
For situational awareness. Not to be used for flight planning purposes.
IDs:

KTUS - Tucson Intl Arpt, AZ, US

Issued at 1725 UTC 02 Aug 2021
Updated at 2236 UTC 02 Aug 2021
Potential Impact None Slight Moderate High
Time2153Z 02/23Z 03/00Z 03/01Z 03/02Z 03/03Z 03/04Z 03/05Z 03/06Z 03/07Z 03/08Z 03/09Z 03/10Z 03/11Z>>
Type OBS PRVL PRVL PRVL PRVL PRVL PRVL PRVL PRVL PRVL PRVL PRVL PRVL PRVL
VIS 10 >6 >6 >6 >6 >6 >6 >6 >6 >6 >6 >6 >6 >6
CIG -- -- -- -- -- -- -- -- -- -- -- -- -- --
Cover CLR SCT SCT SCT SCT FEW FEW FEW FEW FEW FEW FEW FEW FEW
FltCat VFR VFR VFR VFR VFR VFR VFR VFR VFR VFR VFR VFR VFR VFR
WX -- -- -- -- -- -- -- -- -- -- -- -- -- --
WDir 300 330 330 330 330 140 140 140 140 140 140 140 140 140
WSpd 8 8 8 8 8 9 9 9 9 9 9 9 9 9
WGst -- -- -- -- -- -- -- -- -- -- -- -- -- --
Raw TAF
KTUS 021725Z 0218/0318 16005KT P6SM SKC
  FM022100 33008KT P6SM SCT100
  FM030300 14009KT P6SM FEW090


Raw METAR
KTUS 022153Z 30008KT 270V340 10SM CLR 38/16 A3002 RMK AO2 SLP109 T03780161
KTUS 022053Z 33005KT 10SM CLR 37/16 A3005 RMK AO2 SLP120 T03720161 58021
KTUS 021953Z 00000KT 10SM CLR 36/17 A3008 RMK AO2 SLP129 T03610167

METAR Board
Radar Display
Forecast Discussion
For situational awareness. Not to be used for flight planning purposes.